METAR (acronimo di METeorological Air Report) è un messaggio meteo emesso nella maggior parte dei casi in ambito aeroportuale

CYYZ - Toronto-Pearson, Ontario, Canada
Ultimo Aggiornamento: Mercoledì 25 Novembre 2020 20:10 CET
Pioviggine, Bruma, Nuvoloso
Pioviggine, Bruma, Nuvoloso
 Wind from Sud-Est
Vento: Sud-Est 7 km/h
Temperatura: 5°C
Wind Chill: 3°C
Punto di Rugiada: 5°C
Umidità: 100%
Barometro: 1014.6 hPa
Condizioni: Pioviggine, Bruma
Nuvole: Nuvoloso
Visibilità: 3 km
Nuvole nel Dettaglio: Parzialmente Nuvoloso 152 m
Nuvoloso 366 m
2020/11/25 19:10 CYYZ 251910Z 13004KT 2SM -DZ BR SCT005 OVC012 05/05 A2996 RMK SF3ST5 SLP155
CYHZ - Halifax, Nova Scotia, Canada
Ultimo Aggiornamento: Mercoledì 25 Novembre 2020 20:00 CET
Nuvoloso
Nuvoloso
 Wind from Sud-Sud-Est
Vento: Sud-Sud-Est 9 km/h
Temperatura: 0°C
Wind Chill: -3°C
Punto di Rugiada: -4°C
Umidità: 75%
Barometro: 1032.5 hPa
Nuvole: Nuvoloso
Visibilità: 24 km
Nuvole nel Dettaglio: Prevalentemente Nuvoloso 945 m
Nuvoloso 2621 m
2020/11/25 19:00 CYHZ 251900Z 15005KT 120V180 15SM BKN031 OVC086 M00/M04 A3049 RMK SC6AS2 SLP335
CYOW - Ottawa, Ontario, Canada
Ultimo Aggiornamento: Mercoledì 25 Novembre 2020 20:00 CET
Nuvoloso
Nuvoloso
 Wind from Nord-Est
Vento: Nord-Est 19 km/h
Temperatura: -3°C
Wind Chill: -9°C
Punto di Rugiada: -5°C
Umidità: 86%
Barometro: 1019 hPa
Nuvole: Nuvoloso
Visibilità: 16 km
Nuvole nel Dettaglio: Parzialmente Nuvoloso 305 m
Nuvoloso 1036 m
2020/11/25 19:00 CYOW 251900Z 05010KT 10SM SCT010 OVC034 M03/M05 A3009 RMK SC3SC5 SLP198
 
PANC - Anchorage, Alaska, United States
Ultimo Aggiornamento: Mercoledì 25 Novembre 2020 19:53 CET
Prevalentemente Nuvoloso
Prevalentemente Nuvoloso
 Wind from Nord-Nord-Ovest
Vento: Nord-Nord-Ovest 15 km/h
Temperatura: -4°C
Wind Chill: -9°C
Punto di Rugiada: -8°C
Umidità: 74%
Barometro: 985.8 hPa
Nuvole: Prevalentemente Nuvoloso
Visibilità: 16 km
Nuvole nel Dettaglio: Prevalentemente Nuvoloso 1981 m
Prevalentemente Nuvoloso 3048 m
Prevalentemente Nuvoloso 4267 m
2020/11/25 18:53 PANC 251853Z 34008KT 10SM BKN065 BKN100 BKN140 M04/M08 A2911 RMK AO2 SLP860 T10391083
KIAD - Washington-Dulles, Virginia, United States
Ultimo Aggiornamento: Mercoledì 25 Novembre 2020 19:52 CET
Prevalentemente Nuvoloso
Prevalentemente Nuvoloso
 Wind from Sud-Sud-Ovest
Vento: Sud-Sud-Ovest 22 km/h
Temperatura: 14°C
Punto di Rugiada: 4°C
Umidità: 51%
Barometro: 1023.4 hPa
Nuvole: Prevalentemente Nuvoloso
Visibilità: 16 km
Nuvole nel Dettaglio: Qualche Nuvola 3048 m
Prevalentemente Nuvoloso 5182 m
Prevalentemente Nuvoloso 7620 m
2020/11/25 18:52 KIAD 251852Z 20012KT 10SM FEW100 BKN170 BKN250 14/04 A3022 RMK AO2 SLP234 T01390039
KJFK - New York-JFK, New York, United States
Ultimo Aggiornamento: Mercoledì 25 Novembre 2020 19:51 CET
Prevalentemente Nuvoloso
Prevalentemente Nuvoloso
 Wind from Sud-Ovest
Vento: Sud-Ovest 13 km/h
Temperatura: 12°C
Punto di Rugiada: 6°C
Umidità: 67%
Barometro: 1025.7 hPa
Nuvole: Prevalentemente Nuvoloso
Visibilità: 16 km
Nuvole nel Dettaglio: Qualche Nuvola 914 m
Parzialmente Nuvoloso 1158 m
Prevalentemente Nuvoloso 1829 m
Prevalentemente Nuvoloso 7620 m
2020/11/25 18:51 KJFK 251851Z 23007KT 10SM FEW030 SCT038 BKN060 BKN250 12/06 A3029 RMK AO2 SLP256 T01220061 $
 
KORD - Chicago, Illinois, United States
Ultimo Aggiornamento: Mercoledì 25 Novembre 2020 20:21 CET
Pioggia Leggera, Bruma, Nuvoloso
Pioggia Leggera, Bruma, Nuvoloso
 Wind from Est-Nord-Est
Vento: Est-Nord-Est 11 km/h
Temperatura: 8°C
Wind Chill: 6°C
Punto di Rugiada: 7°C
Umidità: 93%
Barometro: 1006.1 hPa
Condizioni: Pioggia Leggera, Bruma
Nuvole: Nuvoloso
Visibilità: 5 km
Nuvole nel Dettaglio: Nuvoloso 152 m
2020/11/25 19:21 KORD 251921Z 06006KT 3SM -RA BR OVC005 08/07 A2971 RMK AO2 P0002 T00830067
KDEN - Denver, Colorado, United States
Ultimo Aggiornamento: Mercoledì 25 Novembre 2020 19:53 CET
Qualche Nuvola
Qualche Nuvola
 Wind from Sud
Vento: Sud 11 km/h
Temperatura: 3°C
Wind Chill: 0°C
Punto di Rugiada: -3°C
Umidità: 65%
Barometro: 1010.8 hPa
Nuvole: Qualche Nuvola
Visibilità: 16 km
Nuvole nel Dettaglio: Qualche Nuvola 6706 m
2020/11/25 18:53 KDEN 251853Z 18006KT 10SM FEW220 03/M03 A2985 RMK AO2 SLP122 T00281033
KSLC - Salt Lake City, Utah, United States
Ultimo Aggiornamento: Mercoledì 25 Novembre 2020 19:54 CET
Prevalentemente Nuvoloso
Prevalentemente Nuvoloso
 Wind from Nord-Nord-Ovest
Vento: Nord-Nord-Ovest 17 km/h
Temperatura: 7°C
Wind Chill: 4°C
Punto di Rugiada: -5°C
Umidità: 42%
Barometro: 1015.2 hPa
Nuvole: Prevalentemente Nuvoloso
Visibilità: 16 km
Nuvole nel Dettaglio: Qualche Nuvola 3048 m
Prevalentemente Nuvoloso 4877 m
Prevalentemente Nuvoloso 6706 m
2020/11/25 18:54 KSLC 251854Z 33009KT 10SM FEW100 BKN160 BKN220 07/M05 A2998 RMK AO2 SLP153 VIRGA T00721050
 
KBOS - Boston, Massachusetts, United States
Ultimo Aggiornamento: Mercoledì 25 Novembre 2020 19:54 CET
Nuvoloso
Nuvoloso
 Wind from Sud
Vento: Sud 6 km/h
Temperatura: 9°C
Punto di Rugiada: 4°C
Umidità: 71%
Barometro: 1025.4 hPa
Nuvole: Nuvoloso
Visibilità: 16 km
Nuvole nel Dettaglio: Qualche Nuvola 823 m
Prevalentemente Nuvoloso 1128 m
Nuvoloso 6096 m
2020/11/25 18:54 KBOS 251854Z 19003KT 10SM FEW027 BKN037 OVC200 09/04 A3028 RMK AO2 SLP252 T00940039
KLAX - Los Angeles, California, United States
Ultimo Aggiornamento: Mercoledì 25 Novembre 2020 19:53 CET
Foschia, Prevalentemente Nuvoloso
Foschia, Prevalentemente Nuvoloso
 Wind from Ovest
Vento: Ovest 9 km/h
Temperatura: 16°C
Punto di Rugiada: 11°C
Umidità: 72%
Barometro: 1020.3 hPa
Condizioni: Foschia
Nuvole: Prevalentemente Nuvoloso
Visibilità: 10 km
Nuvole nel Dettaglio: Qualche Nuvola 305 m
Prevalentemente Nuvoloso 549 m
2020/11/25 18:53 KLAX 251853Z 28005KT 6SM HZ FEW010 BKN018 16/11 A3013 RMK AO2 SLP203 BKN V SCT T01560106
KLAS - Las Vegas, Nevada, United States
Ultimo Aggiornamento: Mercoledì 25 Novembre 2020 19:56 CET
Qualche Nuvola
Qualche Nuvola
 Wind from calm
Vento: Calma
Temperatura: 12°C
Punto di Rugiada: -7°C
Umidità: 26%
Barometro: 1019 hPa
Nuvole: Qualche Nuvola
Visibilità: 16 km
Nuvole nel Dettaglio: Qualche Nuvola 7620 m
2020/11/25 18:56 KLAS 251856Z 00000KT 10SM FEW250 12/M07 A3009 RMK AO2 SLP188 T01221067
 
KSFO - San Francisco, California, United States
Ultimo Aggiornamento: Mercoledì 25 Novembre 2020 19:56 CET
Qualche Nuvola
Qualche Nuvola
 Wind from Ovest-Nord-Ovest
Vento: Ovest-Nord-Ovest 20 km/h
Temperatura: 15°C
Punto di Rugiada: 6°C
Umidità: 55%
Barometro: 1024 hPa
Nuvole: Qualche Nuvola
Visibilità: 16 km
Nuvole nel Dettaglio: Qualche Nuvola 305 m
2020/11/25 18:56 KSFO 251856Z 29011KT 10SM FEW010 15/06 A3024 RMK AO2 SLP240 T01500061
KATL - Atlanta, Georgia, United States
Ultimo Aggiornamento: Mercoledì 25 Novembre 2020 19:52 CET
Prevalentemente Nuvoloso
Prevalentemente Nuvoloso
 Wind from Sud
Vento: Sud 20 km/h, Raffica: 39 km/h
Temperatura: 22°C
Punto di Rugiada: 12°C
Umidità: 53%
Barometro: 1019.6 hPa
Nuvole: Prevalentemente Nuvoloso
Visibilità: 16 km
Nuvole nel Dettaglio: Parzialmente Nuvoloso 1097 m
Prevalentemente Nuvoloso 1676 m
Prevalentemente Nuvoloso 6096 m
Prevalentemente Nuvoloso 7620 m
2020/11/25 18:52 KATL 251852Z 17011G21KT 10SM SCT036 BKN055 BKN200 BKN250 22/12 A3011 RMK AO2 SLP191 T02170122
KDFW - Dallas / Fort Worth, Texas, United States
Ultimo Aggiornamento: Mercoledì 25 Novembre 2020 19:53 CET
Sereno
Sereno
 Wind from Ovest-Nord-Ovest
Vento: Ovest-Nord-Ovest 17 km/h, Raffica: 26 km/h
Temperatura: 16°C
Punto di Rugiada: -1°C
Umidità: 31%
Barometro: 1018.3 hPa
Nuvole: Sereno
Visibilità: 16 km
2020/11/25 18:53 KDFW 251853Z 30009G14KT 260V320 10SM CLR 16/M01 A3007 RMK AO2 SLP178 T01561006
 
KMCI - Kansas City, Missouri, United States
Ultimo Aggiornamento: Mercoledì 25 Novembre 2020 19:53 CET
Nuvoloso
Nuvoloso
 Wind from Nord-Ovest
Vento: Nord-Ovest 20 km/h
Temperatura: 6°C
Wind Chill: 2°C
Punto di Rugiada: 4°C
Umidità: 87%
Barometro: 1011.5 hPa
Nuvole: Nuvoloso
Visibilità: 16 km
Nuvole nel Dettaglio: Nuvoloso 305 m
2020/11/25 18:53 KMCI 251853Z 32011KT 10SM OVC010 06/04 A2987 RMK AO2 SLP115 T00610039
KIAH - Houston, Texas, United States
Ultimo Aggiornamento: Mercoledì 25 Novembre 2020 19:53 CET
Parzialmente Nuvoloso
Parzialmente Nuvoloso
 Wind from Nord-Ovest
Vento: Nord-Ovest 13 km/h
Temperatura: 21°C
Punto di Rugiada: 8°C
Umidità: 43%
Barometro: 1017.3 hPa
Nuvole: Parzialmente Nuvoloso
Visibilità: 16 km
Nuvole nel Dettaglio: Parzialmente Nuvoloso 1829 m
2020/11/25 18:53 KIAH 251853Z 32007KT 10SM SCT060 21/08 A3004 RMK AO2 SLP172 T02110083
KMIA - Miami, Florida, United States
Ultimo Aggiornamento: Mercoledì 25 Novembre 2020 19:53 CET
Prevalentemente Nuvoloso
Prevalentemente Nuvoloso
 Wind from Est
Vento: Est 26 km/h, Raffica: 37 km/h
Temperatura: 27°C
Heat Index: 28°C
Punto di Rugiada: 19°C
Umidità: 62%
Barometro: 1020.7 hPa
Nuvole: Prevalentemente Nuvoloso
Visibilità: 16 km
Nuvole nel Dettaglio: Parzialmente Nuvoloso 914 m
Prevalentemente Nuvoloso 1524 m
Prevalentemente Nuvoloso 1829 m
2020/11/25 18:53 KMIA 251853Z 09014G20KT 10SM SCT030 BKN050 BKN060 27/19 A3014 RMK AO2 SLP205 T02670194
 
KMSY - New Orleans, Louisiana, United States
Ultimo Aggiornamento: Mercoledì 25 Novembre 2020 20:02 CET
Prevalentemente Nuvoloso
Prevalentemente Nuvoloso
 Wind from Sud
Vento: Sud 22 km/h
Temperatura: 27°C
Heat Index: 29°C
Punto di Rugiada: 22°C
Umidità: 74%
Barometro: 1016.3 hPa
Nuvole: Prevalentemente Nuvoloso
Visibilità: 16 km
Nuvole nel Dettaglio: Parzialmente Nuvoloso 732 m
Prevalentemente Nuvoloso 945 m
Prevalentemente Nuvoloso 2134 m
Prevalentemente Nuvoloso 7620 m
2020/11/25 19:02 KMSY 251902Z 18012KT 10SM SCT024 BKN031CB BKN070 BKN250 27/22 A3001 RMK AO2 LTG DSNT NW RAE1857 CB N AND W MOV NE CB DSNT SE AND SW P0000 T02670217
MMMX - Mexico City, Mexico
Ultimo Aggiornamento: Mercoledì 25 Novembre 2020 19:47 CET
Sereno
Sereno
 Wind from Nord
Vento: Nord 9 km/h
Temperatura: 24°C
Punto di Rugiada: 2°C
Umidità: 24%
Barometro: 1028.4 hPa
Nuvole: Sereno
Visibilità: 10 km
2020/11/25 18:47 MMMX 251847Z 36005KT 6SM SKC 24/02 A3037 NOSIG RMK HZY
MUHA - Havana, Cuba
Ultimo Aggiornamento: Mercoledì 25 Novembre 2020 19:55 CET
Parzialmente Nuvoloso
Parzialmente Nuvoloso
 Wind from Est
Vento: Est 13 km/h
Temperatura: 29°C
Heat Index: 31°C
Punto di Rugiada: 20°C
Umidità: 58%
Barometro: 1018 hPa
Nuvole: Parzialmente Nuvoloso
Visibilità: 9 km
Nuvole nel Dettaglio: Parzialmente Nuvoloso 914 m
2020/11/25 18:55 MUHA 251855Z 08007KT 9000 SCT030 29/20 Q1018